Time;durP1;ratioP1;P1;durP2;ratioP2;P2;SDS_P1;SDS_P2;PMS_P1;PMS_P2;Temp;Humidity;BMP_temperature;BMP_pressure;BME280_temperature;BME280_humidity;BME280_pressure;Samples;Min_cycle;Max_cycle;Signal;HPM_P1;HPM_P2
2021/10/05 00:02:00;;;;;;;14.53;12.00;;;;;;;6.87;71.96;101852.99;1740676;81;21070;-72
2021/10/05 00:04:26;;;;;;;18.07;13.58;;;;;;;6.80;72.03;101845.55;1742808;81;21101;-69
2021/10/05 00:06:52;;;;;;;17.73;13.35;;;;;;;6.86;72.17;101853.48;1741840;81;21019;-72
2021/10/05 00:09:19;;;;;;;19.37;13.50;;;;;;;6.81;72.50;101863.13;1741445;81;21084;-74
2021/10/05 00:11:45;;;;;;;18.05;12.43;;;;;;;6.76;72.57;101864.01;1733405;81;21097;-66
2021/10/05 00:14:11;;;;;;;20.43;13.87;;;;;;;6.71;72.76;101860.05;1719469;82;21007;-68
2021/10/05 00:16:37;;;;;;;15.72;12.50;;;;;;;6.68;72.84;101855.83;1711255;82;21487;-68
2021/10/05 00:19:04;;;;;;;14.73;12.13;;;;;;;6.73;72.83;101856.30;1710418;83;21039;-67
2021/10/05 00:21:32;;;;;;;14.60;13.03;;;;;;;6.76;72.88;101859.17;1715626;83;21046;-67
2021/10/05 00:23:58;;;;;;;16.67;12.40;;;;;;;6.77;73.01;101858.22;1717303;83;21116;-66
2021/10/05 00:26:24;;;;;;;16.27;13.15;;;;;;;6.72;73.13;101851.95;1715759;83;20987;-67
2021/10/05 00:28:50;;;;;;;16.40;13.53;;;;;;;6.67;73.42;101857.27;1723043;83;21051;-68
2021/10/05 00:31:16;;;;;;;14.50;12.58;;;;;;;6.67;73.42;101857.27;1711317;83;21099;-67
2021/10/05 00:33:42;;;;;;;15.80;12.75;;;;;;;6.68;73.52;101855.83;1715702;83;20999;-67
2021/10/05 00:36:09;;;;;;;;;;;;;;;6.72;73.55;101857.74;1726597;82;21078;-67
2021/10/05 00:38:35;;;;;;;14.20;12.20;;;;;;;6.71;73.56;101859.56;1713711;83;20122;-66
2021/10/05 00:41:02;;;;;;;22.48;13.15;;;;;;;6.61;73.82;101858.61;1717595;82;21020;-68
2021/10/05 00:43:28;;;;;;;18.03;14.07;;;;;;;6.58;74.02;101854.91;1699884;83;21076;-66
2021/10/05 00:45:55;;;;;;;18.05;14.23;;;;;;;6.56;74.17;101858.17;1703815;82;21003;-65
2021/10/05 00:48:21;;;;;;;15.43;13.75;;;;;;;6.59;74.15;101863.20;1721008;82;21015;-68
2021/10/05 00:50:48;;;;;;;17.55;15.70;;;;;;;6.59;74.11;101862.73;1720212;83;20970;-65
2021/10/05 00:53:16;;;;;;;20.87;15.63;;;;;;;6.54;74.31;101866.23;1714867;83;21468;-66
2021/10/05 00:55:42;;;;;;;18.70;16.10;;;;;;;6.47;74.48;101862.39;1722200;82;20963;-65
2021/10/05 00:58:08;;;;;;;17.57;15.30;;;;;;;6.41;74.79;101865.05;1724566;83;21440;-67
2021/10/05 01:00:37;;;;;;;22.87;15.38;;;;;;;6.37;74.91;101869.41;1723023;82;20980;-69
2021/10/05 01:03:05;;;;;;;29.60;15.17;;;;;;;6.38;74.86;101869.75;1714778;82;21525;-67
2021/10/05 01:05:31;;;;;;;19.23;14.10;;;;;;;6.38;74.92;101873.23;1721936;83;20988;-67
2021/10/05 01:07:58;;;;;;;17.60;14.73;;;;;;;6.36;75.00;101875.17;1703967;83;20979;-66
2021/10/05 01:10:25;;;;;;;24.85;15.45;;;;;;;6.31;75.32;101877.83;1706588;83;21007;-66
2021/10/05 01:12:52;;;;;;;22.03;15.73;;;;;;;6.25;75.44;101881.80;1708969;82;21018;-66
2021/10/05 01:15:29;;;;;;;16.70;13.33;;;;;;;6.22;75.60;101882.91;1721289;83;20998;-66
2021/10/05 01:17:55;;;;;;;18.15;15.60;;;;;;;5.57;75.43;101757.44;1720140;83;20972;-66
2021/10/05 01:20:21;;;;;;;;;;;;;;;6.29;75.47;101880.63;1716075;83;21010;-66
2021/10/05 01:22:49;;;;;;;;;;;;;;;6.28;75.60;101874.95;1723398;81;20133;-66
2021/10/05 01:25:16;;;;;;;19.43;14.73;;;;;;;6.18;75.94;101884.11;1722637;83;20823;-67
2021/10/05 01:27:49;;;;;;;20.93;15.13;;;;;;;6.08;76.23;101877.02;1718512;83;21114;-68
2021/10/05 01:30:18;;;;;;;18.30;13.93;;;;;;;6.06;76.40;101883.75;1716648;83;21560;-68
2021/10/05 01:32:46;;;;;;;18.83;13.53;;;;;;;6.11;76.36;101888.70;1719253;82;21022;-66
2021/10/05 01:35:13;;;;;;;18.73;14.80;;;;;;;6.15;76.30;101881.70;1719860;83;20984;-67
2021/10/05 01:37:41;;;;;;;17.80;13.70;;;;;;;6.20;76.20;101886.65;1723597;83;21043;-67
2021/10/05 01:40:10;;;;;;;19.33;13.93;;;;;;;6.22;76.19;101890.02;1723082;83;21087;-66
2021/10/05 01:42:37;;;;;;;17.30;13.60;;;;;;;6.19;76.28;101892.89;1723855;82;21597;-66
2021/10/05 01:45:06;;;;;;;16.80;13.60;;;;;;;6.16;76.47;101890.47;1723571;82;21011;-68
2021/10/05 01:47:33;;;;;;;16.73;12.77;;;;;;;6.17;76.35;101897.47;1711885;83;20991;-66
2021/10/05 01:49:59;;;;;;;15.40;13.03;;;;;;;6.21;76.22;101889.15;1723449;83;21000;-69
2021/10/05 01:52:25;;;;;;;19.20;13.80;;;;;;;6.24;76.15;101891.56;1723665;82;21048;-66
2021/10/05 01:54:52;;;;;;;16.25;12.98;;;;;;;6.20;76.43;101894.59;1720209;82;21070;-67
2021/10/05 01:57:18;;;;;;;14.45;12.95;;;;;;;6.13;76.66;101896.03;1700856;83;20991;-70
2021/10/05 01:59:44;;;;;;;15.85;13.32;;;;;;;6.07;76.87;101896.03;1721312;83;21543;-66
2021/10/05 02:02:10;;;;;;;17.50;12.75;;;;;;;6.06;77.03;101898.80;1716201;83;21006;-67
2021/10/05 02:04:37;;;;;;;17.77;13.78;;;;;;;6.10;76.91;101898.91;1720914;82;21120;-67
2021/10/05 02:07:03;;;;;;;20.88;14.68;;;;;;;6.15;76.86;101902.05;1721651;82;21074;-66
2021/10/05 02:09:30;;;;;;;18.50;13.90;;;;;;;6.16;76.94;101901.06;1723817;83;21083;-67
2021/10/05 02:11:56;;;;;;;15.68;13.60;;;;;;;6.12;77.07;101900.49;1722058;81;21010;-67
2021/10/05 02:14:23;;;;;;;15.50;13.80;;;;;;;6.08;77.13;101908.29;1723652;83;21041;-66
2021/10/05 02:16:49;;;;;;;17.87;14.17;;;;;;;6.04;77.33;101909.50;1722798;83;21027;-67
2021/10/05 02:19:16;;;;;;;18.07;12.55;;;;;;;6.06;77.26;101911.55;1722433;83;21058;-67
2021/10/05 02:21:42;;;;;;;16.95;13.35;;;;;;;6.12;77.15;101912.86;1722225;83;21040;-69
2021/10/05 02:26:52;;;;;;;19.67;13.53;;;;;;;6.09;77.27;101910.48;1721800;83;21071;-66
2021/10/05 02:29:21;;;;;;;21.70;15.10;;;;;;;6.01;77.58;101911.92;1713307;83;20947;-66
2021/10/05 02:31:49;;;;;;;20.00;15.63;;;;;;;5.97;77.70;101913.58;1719529;82;21047;-66
2021/10/05 02:34:16;;;;;;;15.70;13.53;;;;;;;5.96;77.66;101922.02;1716724;82;21031;-67
2021/10/05 02:36:43;;;;;;;16.47;14.40;;;;;;;6.01;77.57;101919.86;1707492;83;21110;-66
2021/10/05 02:39:11;;;;;;;18.20;14.77;;;;;;;6.04;77.51;101919.59;1718755;83;21518;-66
2021/10/05 02:41:37;;;;;;;17.97;14.10;;;;;;;6.08;77.59;101921.53;1721503;82;21053;-66
2021/10/05 02:44:04;;;;;;;22.93;15.15;;;;;;;6.03;77.64;101924.55;1718112;82;21513;-67
2021/10/05 02:46:31;;;;;;;17.67;14.97;;;;;;;6.00;77.71;101927.42;1713402;82;21070;-65
2021/10/05 02:48:57;;;;;;;17.35;15.35;;;;;;;5.99;77.63;101928.41;1712123;83;20999;-68
2021/10/05 02:51:23;;;;;;;17.17;14.23;;;;;;;6.04;77.62;101927.54;1721027;83;21011;-68
2021/10/05 02:53:49;;;;;;;18.32;14.70;;;;;;;6.08;77.55;101926.82;1721475;83;21264;-69
2021/10/05 02:56:16;;;;;;;19.12;15.45;;;;;;;6.08;77.55;101933.44;1713757;83;21062;-66
2021/10/05 02:58:42;;;;;;;19.37;15.68;;;;;;;6.06;77.70;101938.50;1720818;83;21023;-66
2021/10/05 03:01:08;;;;;;;15.35;13.75;;;;;;;6.00;77.75;101935.36;1705837;83;21031;-66
2021/10/05 03:03:34;;;;;;;20.88;16.50;;;;;;;5.98;77.85;101935.97;1724161;83;21476;-69
2021/10/05 03:06:00;;;;;;;18.90;14.28;;;;;;;5.96;77.63;101933.92;1718623;82;21022;-66
2021/10/05 03:08:29;;;;;;;25.33;16.47;;;;;;;5.97;77.74;101936.95;1723424;82;21034;-67
2021/10/05 03:10:56;;;;;;;18.97;16.03;;;;;;;5.97;77.90;101933.44;1722386;82;21518;-66
2021/10/05 03:13:22;;;;;;;18.90;15.57;;;;;;;5.92;78.06;101931.13;1723210;82;20991;-67
2021/10/05 03:15:49;;;;;;;19.92;16.10;;;;;;;5.88;78.05;101939.41;1724320;82;21053;-67
2021/10/05 03:18:15;;;;;;;19.52;16.55;;;;;;;5.88;78.14;101936.75;1720041;83;20963;-67
2021/10/05 03:23:42;;;;;;;23.40;16.27;;;;;;;5.97;77.94;101932.97;1803488;76;22173;-68
2021/10/05 03:26:08;;;;;;;19.60;16.45;;;;;;;5.92;78.01;101939.55;1777704;80;21089;-67
2021/10/05 03:28:35;;;;;;;19.00;16.70;;;;;;;5.88;78.15;101945.56;1760088;80;21524;-67
2021/10/05 03:31:01;;;;;;;23.22;16.80;;;;;;;5.86;78.21;101943.52;1769731;80;21033;-66
2021/10/05 03:33:28;;;;;;;26.05;17.25;;;;;;;5.87;78.18;101946.51;1772237;80;21120;-70
2021/10/05 03:35:54;;;;;;;24.12;16.12;;;;;;;5.92;77.98;101945.68;1764571;80;21009;-67
2021/10/05 03:38:22;;;;;;;21.52;16.95;;;;;;;5.93;77.88;101946.52;1749896;80;21544;-66
2021/10/05 03:40:50;;;;;;;25.00;17.20;;;;;;;5.92;77.99;101943.52;1762626;80;21520;-67
2021/10/05 03:43:16;;;;;;;21.17;17.70;;;;;;;5.88;78.18;101944.23;1762801;80;21508;-66
2021/10/05 03:45:43;;;;;;;23.98;17.32;;;;;;;5.84;78.35;101947.59;1757967;80;21065;-67
2021/10/05 03:48:09;;;;;;;24.85;17.40;;;;;;;5.84;78.39;101956.02;1756080;80;21025;-67
2021/10/05 03:50:36;;;;;;;21.15;15.50;;;;;;;5.87;78.28;101957.09;1761267;80;20992;-68
2021/10/05 03:53:01;;;;;;;20.27;16.67;;;;;;;5.84;78.24;101949.41;1753746;80;21101;-65
2021/10/05 03:55:28;;;;;;;24.85;17.55;;;;;;;5.88;78.35;101960.58;1757215;80;21025;-66
2021/10/05 03:57:54;;;;;;;20.80;16.93;;;;;;;5.82;78.62;101963.21;1764927;80;21037;-77
2021/10/05 04:00:20;;;;;;;19.60;16.45;;;;;;;5.76;78.78;101961.04;1752466;80;21576;-68
2021/10/05 04:02:46;;;;;;;25.32;17.62;;;;;;;5.69;79.06;101960.68;1750526;80;21110;-67
2021/10/05 04:05:12;;;;;;;23.25;17.07;;;;;;;5.69;79.10;101963.78;1764132;80;22351;-67
2021/10/05 04:07:39;;;;;;;20.17;17.20;;;;;;;5.71;79.21;101964.05;1764020;80;21027;-66
2021/10/05 04:10:07;;;;;;;24.12;18.30;;;;;;;5.69;79.26;101961.14;1726806;80;21048;-67
2021/10/05 04:12:35;;;;;;;25.40;18.70;;;;;;;5.64;79.53;101961.50;1775097;80;21009;-68
2021/10/05 04:15:03;;;;;;;24.13;18.53;;;;;;;5.60;79.73;101958.24;1760078;80;21438;-67
2021/10/05 04:17:29;;;;;;;22.77;19.23;;;;;;;5.59;79.80;101956.54;1750007;80;20977;-67
2021/10/05 04:19:56;;;;;;;29.93;18.70;;;;;;;5.65;79.66;101956.10;1752812;80;21037;-66
2021/10/05 04:22:22;;;;;;;21.40;17.55;;;;;;;5.71;79.67;101964.05;1747657;80;21081;-67
2021/10/05 04:24:48;;;;;;;23.67;19.15;;;;;;;5.79;79.75;101966.11;1729266;81;20965;-65
2021/10/05 04:27:14;;;;;;;25.82;19.20;;;;;;;5.90;79.96;101970.10;1732978;81;21547;-68
2021/10/05 04:29:41;;;;;;;27.00;21.23;;;;;;;6.03;79.98;101975.33;1728167;81;21028;-70
2021/10/05 04:32:09;;;;;;;30.80;20.73;;;;;;;6.20;79.61;101970.89;1731179;81;21041;-70
2021/10/05 04:34:35;;;;;;;26.60;20.20;;;;;;;6.46;79.09;101978.61;1723545;80;21083;-66
2021/10/05 04:37:02;;;;;;;22.95;18.85;;;;;;;6.77;77.82;101984.94;1733369;81;21456;-66
2021/10/05 04:39:29;;;;;;;25.72;19.95;;;;;;;7.07;76.91;101983.92;1732495;81;21097;-68
2021/10/05 04:41:55;;;;;;;25.67;21.50;;;;;;;7.35;75.85;101979.35;1733456;81;21355;-67
2021/10/05 04:44:21;;;;;;;34.25;19.98;;;;;;;7.59;74.74;101982.24;1729029;81;21034;-67
2021/10/05 04:46:47;;;;;;;23.80;18.30;;;;;;;7.87;73.71;101981.25;1743490;81;20998;-67
2021/10/05 04:49:14;;;;;;;27.05;20.02;;;;;;;8.11;72.05;101984.47;1723301;81;20984;-69
2021/10/05 04:51:39;;;;;;;27.47;21.63;;;;;;;8.32;70.79;101980.93;1726174;81;21086;-68
2021/10/05 04:54:06;;;;;;;;;;;;;;;8.51;70.17;101982.86;1724754;81;21071;-70
2021/10/05 04:56:32;;;;;;;24.70;18.53;;;;;;;8.79;69.12;101985.75;1742865;80;20105;-67
2021/10/05 04:58:58;;;;;;;22.48;18.85;;;;;;;9.07;67.91;101992.09;1764212;80;20976;-71
2021/10/05 05:01:25;;;;;;;24.57;19.37;;;;;;;9.35;67.16;101998.43;1741923;80;21032;-68
2021/10/05 05:03:51;;;;;;;25.77;18.65;;;;;;;9.63;65.73;102003.39;1725159;81;21064;-69
2021/10/05 05:06:17;;;;;;;24.23;19.57;;;;;;;9.80;63.61;101999.17;1717041;81;22047;-70
2021/10/05 05:08:43;;;;;;;22.48;18.12;;;;;;;9.99;64.45;102010.28;1699335;82;21053;-70
2021/10/05 05:11:09;;;;;;;21.25;18.92;;;;;;;10.24;63.25;102009.30;1726622;80;21025;-73
2021/10/05 05:13:35;;;;;;;26.27;19.62;;;;;;;10.54;62.44;102005.57;1761242;80;21520;-69
2021/10/05 05:16:02;;;;;;;24.07;18.37;;;;;;;10.84;61.31;102011.09;1764436;80;21505;-67
2021/10/05 05:18:29;;;;;;;19.98;17.77;;;;;;;11.11;60.39;102008.05;1728538;80;21552;-67
2021/10/05 05:20:55;;;;;;;24.37;18.73;;;;;;;11.36;58.83;102010.96;1765537;80;21028;-69
2021/10/05 05:23:21;;;;;;;23.15;19.20;;;;;;;11.53;58.35;102015.48;1743646;80;21118;-70
2021/10/05 05:25:47;;;;;;;;;;;;;;;11.67;57.71;102020.26;1727846;81;21274;-72
2021/10/05 05:28:14;;;;;;;21.90;18.60;;;;;;;11.88;57.10;102018.61;1724938;81;20147;-70
2021/10/05 05:34:11;;;;;;;20.57;18.35;;;;;;;12.14;55.37;102015.12;1689400;82;21142;-70
2021/10/05 05:39:42;;;;;;;23.15;18.75;;;;;;;12.07;55.52;102024.28;1675917;84;21131;-68
2021/10/05 05:42:10;;;;;;;19.65;17.57;;;;;;;12.13;55.51;102026.83;1674324;84;21072;-69
2021/10/05 05:44:39;;;;;;;23.18;19.80;;;;;;;12.31;55.25;102036.62;1683932;84;21000;-73
2021/10/05 05:47:05;;;;;;;27.22;19.87;;;;;;;12.49;54.43;102028.03;1680431;84;21048;-70
2021/10/05 05:49:32;;;;;;;26.55;19.07;;;;;;;12.52;53.74;102033.05;1679276;84;20993;-69
2021/10/05 05:51:59;;;;;;;28.23;20.72;;;;;;;12.48;54.17;102033.03;1672113;84;21618;-72
2021/10/05 05:54:25;;;;;;;19.10;17.17;;;;;;;12.38;54.24;102039.83;1663896;84;21575;-70
2021/10/05 05:56:52;;;;;;;21.45;19.00;;;;;;;12.26;54.35;102035.73;1669886;84;21057;-65
2021/10/05 05:59:19;;;;;;;26.15;18.20;;;;;;;12.27;54.70;102044.11;1644387;85;21954;-74
2021/10/05 06:01:45;;;;;;;19.77;17.73;;;;;;;12.51;54.38;102034.06;1693109;82;21079;-77
2021/10/05 06:04:11;;;;;;;21.97;19.35;;;;;;;12.89;53.62;102035.88;1704016;82;21895;-76
2021/10/05 06:06:37;;;;;;;22.42;18.52;;;;;;;13.37;52.83;102030.36;1672073;84;21410;-69
2021/10/05 06:09:04;;;;;;;21.20;18.30;;;;;;;13.57;51.02;102032.70;1676124;84;21025;-71
2021/10/05 06:11:38;;;;;;;29.15;19.32;;;;;;;13.49;51.43;102034.05;1707147;82;21364;-71
2021/10/05 06:14:04;;;;;;;31.35;21.65;;;;;;;13.33;51.76;102038.87;1708101;82;21132;-71
2021/10/05 06:16:30;;;;;;;33.25;22.07;;;;;;;12.90;52.89;102037.55;1680000;84;20989;-73
2021/10/05 06:18:56;;;;;;;;;;;;;;;12.40;54.15;102050.37;1721066;82;21033;-70
2021/10/05 06:21:22;;;;;;;42.25;22.73;;;;;;;11.94;55.50;102053.73;1710034;82;20148;-74
2021/10/05 06:23:48;;;;;;;81.25;30.70;;;;;;;11.43;57.28;102046.27;1690947;81;21036;-71
2021/10/05 06:26:14;;;;;;;85.97;34.40;;;;;;;10.63;58.96;102005.19;1676982;83;21368;-73
2021/10/05 06:28:42;;;;;;;95.83;36.80;;;;;;;10.46;61.07;102048.96;1645433;85;21535;-74
2021/10/05 06:31:09;;;;;;;88.97;34.57;;;;;;;10.25;62.04;102050.47;1676217;83;22300;-74
2021/10/05 06:33:36;;;;;;;70.30;30.10;;;;;;;10.11;62.38;102050.91;1688208;82;21055;-73
2021/10/05 06:36:03;;;;;;;68.22;29.75;;;;;;;10.07;62.63;102065.51;1683971;82;21060;-72
2021/10/05 06:38:29;;;;;;;39.90;23.23;;;;;;;10.09;62.58;102063.04;1713601;82;21643;-72
2021/10/05 06:40:55;;;;;;;44.50;23.52;;;;;;;10.12;62.59;102056.10;1713555;82;20969;-70
2021/10/05 06:43:21;;;;;;;47.43;23.92;;;;;;;10.15;62.75;102062.96;1715299;82;21084;-69
2021/10/05 06:45:48;;;;;;;67.22;27.05;;;;;;;10.14;63.17;102062.62;1695469;81;20977;-71
2021/10/05 06:48:14;;;;;;;87.33;30.87;;;;;;;10.05;63.25;102052.83;1682983;83;20997;-73
2021/10/05 06:50:41;;;;;;;68.47;28.52;;;;;;;9.99;63.60;102057.41;1684763;83;22207;-73
2021/10/05 06:53:08;;;;;;;46.67;24.67;;;;;;;10.01;64.29;102058.93;1683765;83;21050;-68
2021/10/05 06:55:34;;;;;;;47.17;23.93;;;;;;;10.04;64.12;102053.80;1684089;83;21858;-68
2021/10/05 06:58:01;;;;;;;72.20;27.70;;;;;;;10.06;64.26;102059.84;1678870;84;21859;-71
2021/10/05 07:00:27;;;;;;;90.28;31.25;;;;;;;10.05;64.20;102056.82;1669736;84;21028;-67
2021/10/05 07:02:53;;;;;;;121.63;37.83;;;;;;;10.03;64.44;102046.30;1680607;83;21017;-72
2021/10/05 07:05:21;;;;;;;69.55;24.95;;;;;;;10.08;64.46;102051.22;1677897;83;21036;-74
2021/10/05 07:07:51;;;;;;;69.80;30.03;;;;;;;10.18;64.38;102049.36;1660743;84;21201;-71
2021/10/05 07:10:21;;;;;;;92.63;34.43;;;;;;;10.32;64.35;102056.95;1641811;85;21909;-68
2021/10/05 07:12:50;;;;;;;82.97;32.67;;;;;;;10.38;64.11;102058.66;1692165;82;21100;-75
2021/10/05 07:15:16;;;;;;;49.53;24.73;;;;;;;10.43;63.98;102056.41;1695064;82;21448;-74
2021/10/05 07:17:44;;;;;;;72.83;28.20;;;;;;;10.42;64.11;102052.91;1672012;84;21687;-69
2021/10/05 07:20:11;;;;;;;91.13;34.47;;;;;;;10.47;64.32;102063.13;1706624;82;21082;-71
2021/10/05 07:22:38;;;;;;;108.97;37.47;;;;;;;10.55;64.00;102059.26;1712065;82;21491;-71
2021/10/05 07:25:06;;;;;;;98.17;34.60;;;;;;;10.63;63.84;102059.36;1662939;84;21060;-69
2021/10/05 07:27:32;;;;;;;84.27;31.03;;;;;;;10.65;63.73;102064.05;1687840;84;21594;-71
2021/10/05 07:30:01;;;;;;;;;;;;;;;10.79;63.55;102065.88;1702847;82;21259;-73
2021/10/05 07:32:26;;;;;;;42.20;20.60;;;;;;;10.99;63.00;102071.47;1709945;82;20502;-73
2021/10/05 07:34:52;;;;;;;37.53;20.17;;;;;;;11.07;62.64;102062.22;1690120;82;21526;-71
2021/10/05 07:37:18;;;;;;;54.80;25.27;;;;;;;11.15;62.41;102061.97;1685895;83;20989;-70
2021/10/05 07:39:44;;;;;;;48.92;22.45;;;;;;;11.21;62.03;102066.23;1678642;83;21187;-72
2021/10/05 07:42:11;;;;;;;35.92;19.77;;;;;;;11.21;62.23;102069.40;1669017;83;21124;-70
2021/10/05 07:44:37;;;;;;;24.40;18.50;;;;;;;11.21;62.30;102072.90;1662810;83;21175;-69
2021/10/05 07:47:03;;;;;;;28.90;19.98;;;;;;;11.29;62.21;102074.81;1662665;84;21144;-70
2021/10/05 07:49:32;;;;;;;30.37;19.10;;;;;;;11.34;62.14;102070.34;1676645;84;21099;-69
2021/10/05 07:51:57;;;;;;;36.00;20.63;;;;;;;11.40;62.17;102079.94;1702121;82;20993;-77
2021/10/05 07:54:23;;;;;;;27.42;18.73;;;;;;;11.50;61.86;102075.36;1696260;82;21080;-74
2021/10/05 07:56:49;;;;;;;22.37;18.15;;;;;;;11.63;61.63;102076.83;1694247;82;21009;-70
2021/10/05 07:59:15;;;;;;;24.37;18.07;;;;;;;11.73;61.21;102076.73;1698299;82;20997;-69
2021/10/05 08:01:48;;;;;;;47.70;23.67;;;;;;;11.83;60.94;102073.51;1684432;82;21558;-70
2021/10/05 08:04:10;;;;;;;57.43;23.73;;;;;;;11.92;60.60;102072.58;1684744;82;21583;-70
2021/10/05 08:06:35;;;;;;;31.75;17.25;;;;;;;11.94;60.52;102073.77;1659853;84;21049;-74
2021/10/05 08:09:02;;;;;;;17.80;14.87;;;;;;;11.95;60.43;102078.13;1670784;83;21544;-71
2021/10/05 08:11:28;;;;;;;19.62;15.90;;;;;;;11.98;60.30;102080.00;1678560;83;21029;-71
2021/10/05 08:13:54;;;;;;;17.73;15.72;;;;;;;11.98;60.55;102074.66;1670306;84;21047;-70
2021/10/05 08:16:25;;;;;;;20.68;15.58;;;;;;;12.05;60.71;102075.72;1668120;83;21343;-72
2021/10/05 08:18:48;;;;;;;19.85;15.25;;;;;;;12.18;60.24;102084.64;1694836;82;21368;-74
2021/10/05 08:21:16;;;;;;;16.57;14.28;;;;;;;12.29;59.92;102082.22;1704910;82;21048;-67
2021/10/05 08:23:45;;;;;;;17.05;15.40;;;;;;;12.39;59.56;102079.44;1694000;82;21843;-71
2021/10/05 08:26:12;;;;;;;16.90;14.53;;;;;;;12.44;59.06;102075.30;1681050;83;21068;-72
2021/10/05 08:28:38;;;;;;;15.20;13.70;;;;;;;12.49;59.00;102069.48;1714551;82;21287;-70
2021/10/05 08:31:04;;;;;;;16.42;13.25;;;;;;;12.53;58.58;102078.86;1675726;83;21085;-67
2021/10/05 08:33:31;;;;;;;;;;;;;;;12.51;58.59;102073.31;1703039;82;21059;-68
2021/10/05 08:36:00;;;;;;;19.25;14.68;;;;;;;12.50;58.83;102067.14;1702077;83;20158;-72
2021/10/05 08:38:26;;;;;;;16.42;13.58;;;;;;;12.52;58.85;102065.14;1673511;84;21056;-72
2021/10/05 08:40:52;;;;;;;16.30;13.90;;;;;;;12.62;58.99;102074.37;1700255;82;21015;-75
2021/10/05 08:43:23;;;;;;;13.75;12.45;;;;;;;12.75;58.25;102070.80;1697740;82;21559;-70
2021/10/05 08:45:50;;;;;;;14.95;13.45;;;;;;;12.82;58.08;102073.65;1693418;82;20961;-71
2021/10/05 08:48:16;;;;;;;13.03;11.75;;;;;;;12.92;57.50;102067.69;1698531;82;21045;-70
2021/10/05 08:50:43;;;;;;;16.27;12.33;;;;;;;12.99;57.10;102078.06;1707856;82;21104;-71
2021/10/05 08:53:09;;;;;;;13.75;12.25;;;;;;;13.04;56.85;102074.41;1702674;82;21056;-72
2021/10/05 08:55:36;;;;;;;13.55;12.15;;;;;;;13.07;56.44;102061.19;1693242;82;21006;-69
2021/10/05 08:58:02;;;;;;;13.85;12.45;;;;;;;13.09;56.55;102067.72;1709161;82;22174;-72
2021/10/05 09:00:32;;;;;;;16.35;13.78;;;;;;;13.12;56.75;102076.27;1707115;82;21064;-69
2021/10/05 09:02:58;;;;;;;14.43;12.95;;;;;;;13.16;56.23;102073.59;1709098;82;21591;-69
2021/10/05 09:05:27;;;;;;;14.95;11.80;;;;;;;13.15;56.23;102073.28;1682640;84;21056;-75
2021/10/05 09:07:57;;;;;;;14.73;13.32;;;;;;;13.18;56.05;102082.81;1707838;82;21114;-68
2021/10/05 09:10:28;;;;;;;13.85;12.43;;;;;;;13.25;55.95;102074.47;1710825;82;21933;-76
2021/10/05 09:12:55;;;;;;;12.85;10.00;;;;;;;13.23;55.89;102065.26;1705543;82;21097;-75
2021/10/05 09:18:24;;;;;;;12.63;11.30;;;;;;;13.38;55.26;102070.84;1712108;81;21110;-67
2021/10/05 09:20:51;;;;;;;;;;;;;;;13.43;55.06;102068.52;1694684;83;21049;-68
2021/10/05 09:23:18;;;;;;;13.70;9.90;;;;;;;13.42;54.92;102071.36;1703689;82;20239;-67
2021/10/05 09:25:50;;;;;;;11.43;10.23;;;;;;;13.40;54.72;102074.20;1661618;83;21050;-66
2021/10/05 09:28:27;;;;;;;22.67;12.55;;;;;;;13.48;54.71;102067.19;1690925;83;21133;-66
2021/10/05 09:31:04;;;;;;;12.07;10.88;;;;;;;13.52;54.52;102057.30;1690692;83;21061;-69
2021/10/05 09:33:32;;;;;;;12.82;10.80;;;;;;;13.59;54.62;102062.34;1690681;83;21834;-68
2021/10/05 09:35:59;;;;;;;10.70;9.45;;;;;;;13.71;53.86;102060.67;1692534;83;21512;-69
2021/10/05 09:38:29;;;;;;;11.63;10.40;;;;;;;13.71;53.83;102055.31;1682840;83;21153;31
2021/10/05 09:41:06;;;;;;;14.50;9.85;;;;;;;13.75;53.81;102057.50;1671932;84;21100;-68
2021/10/05 09:43:33;;;;;;;13.83;9.00;;;;;;;13.82;53.50;102053.64;1691349;83;21092;-70
2021/10/05 09:46:15;;;;;;;13.13;9.68;;;;;;;13.94;53.10;102056.84;1659615;84;21086;-70
2021/10/05 09:48:43;;;;;;;11.12;8.25;;;;;;;13.97;51.98;102053.28;1692843;83;21042;-68
2021/10/05 09:51:24;;;;;;;10.93;8.93;;;;;;;13.91;51.70;102035.20;1673374;84;21033;-68
2021/10/05 09:53:52;;;;;;;16.32;10.03;;;;;;;13.96;51.96;102062.35;1677241;84;21089;-67
2021/10/05 09:56:24;;;;;;;11.33;9.85;;;;;;;14.04;51.79;102060.68;1699071;83;21031;-68
2021/10/05 09:58:51;;;;;;;10.82;9.05;;;;;;;14.11;51.52;102053.13;1686943;83;21061;-68
2021/10/05 10:01:21;;;;;;;14.20;8.98;;;;;;;14.16;51.11;102037.34;1657818;85;21038;-68
2021/10/05 10:03:49;;;;;;;11.75;8.70;;;;;;;14.23;51.53;102036.68;1661170;85;21027;-67
2021/10/05 10:06:17;;;;;;;10.50;8.93;;;;;;;14.28;51.39;102032.48;1652726;85;21075;-69
2021/10/05 10:08:49;;;;;;;11.20;8.50;;;;;;;14.40;51.12;102050.37;1667186;84;21118;-67
2021/10/05 10:11:17;;;;;;;13.83;9.35;;;;;;;14.53;50.31;102047.16;1692312;81;21018;-66
2021/10/05 10:13:49;;;;;;;16.45;9.45;;;;;;;14.63;49.90;102051.84;1724723;81;21630;-68
2021/10/05 10:16:16;;;;;;;16.87;9.13;;;;;;;14.68;47.96;102041.95;1706117;83;22287;-67
2021/10/05 10:18:54;;;;;;;9.35;8.38;;;;;;;14.67;48.03;102057.19;1726114;81;21363;-68
2021/10/05 10:21:34;;;;;;;8.73;7.83;;;;;;;14.59;47.72;102043.81;1725034;81;20978;-68
2021/10/05 10:24:14;;;;;;;8.25;7.45;;;;;;;14.49;47.96;102038.61;1691739;83;21093;-67
2021/10/05 10:26:45;;;;;;;12.03;7.50;;;;;;;14.48;48.02;102057.05;1699856;83;21029;-68
2021/10/05 10:29:25;;;;;;;8.45;7.62;;;;;;;14.50;47.65;102046.98;1690703;83;21010;-66
2021/10/05 10:31:52;;;;;;;9.35;7.10;;;;;;;14.53;47.53;102039.11;1697562;83;21073;-67
2021/10/05 10:34:23;;;;;;;9.18;6.75;;;;;;;14.54;47.35;102034.06;1704073;83;20993;-73
2021/10/05 10:36:52;;;;;;;10.03;7.53;;;;;;;14.54;46.94;102017.96;1712438;83;21080;-67
2021/10/05 10:39:23;;;;;;;7.28;6.58;;;;;;;14.53;47.16;102017.13;1697704;83;21128;-69
2021/10/05 10:41:57;;;;;;;8.00;7.30;;;;;;;14.58;47.06;102012.64;1707294;83;21161;-68
2021/10/05 10:44:30;;;;;;;9.40;6.50;;;;;;;14.69;46.78;102014.08;1705890;83;21195;-67
2021/10/05 10:47:16;;;;;;;8.38;6.05;;;;;;;14.79;46.32;102001.30;1691902;83;21017;-68
2021/10/05 10:49:55;;;;;;;9.97;7.40;;;;;;;14.90;45.62;102010.78;1692416;83;21029;-68
2021/10/05 10:52:32;;;;;;;14.70;5.90;;;;;;;14.99;45.82;102004.36;1688450;83;21093;-67
2021/10/05 10:54:59;;;;;;;7.20;4.33;;;;;;;15.08;43.69;102005.16;1689390;83;21018;-69
2021/10/05 10:57:41;;;;;;;8.63;4.30;;;;;;;15.10;42.65;101996.41;1667260;81;21520;-68
2021/10/05 11:00:22;;;;;;;10.48;5.25;;;;;;;14.98;41.81;101994.65;1677827;84;21074;-69
2021/10/05 11:02:55;;;;;;;8.08;5.42;;;;;;;14.76;42.94;102004.31;1704094;83;21036;-70
2021/10/05 11:05:23;;;;;;;25.25;9.90;;;;;;;14.67;42.87;101993.29;1702007;83;21536;-67
2021/10/05 11:07:55;;;;;;;15.80;6.40;;;;;;;14.69;43.43;102002.86;1673929;84;21057;-68
2021/10/05 11:10:33;;;;;;;6.95;6.00;;;;;;;14.70;44.10;102000.48;1685095;84;21038;-68
2021/10/05 11:13:06;;;;;;;8.33;5.80;;;;;;;14.70;43.97;101987.58;1668303;84;21354;-67
2021/10/05 11:15:44;;;;;;;7.72;5.65;;;;;;;14.74;44.47;101987.55;1660964;85;21046;-67
2021/10/05 11:18:14;;;;;;;7.03;5.45;;;;;;;14.85;44.30;101995.22;1663491;85;20986;-67
2021/10/05 11:20:54;;;;;;;4.33;3.98;;;;;;;14.94;44.30;101988.79;1667771;85;22192;-69
2021/10/05 11:23:23;;;;;;;6.78;4.17;;;;;;;14.95;41.09;101974.34;1666813;85;21025;-66
2021/10/05 11:26:00;;;;;;;5.55;4.00;;;;;;;15.01;41.37;101971.96;1661500;85;20979;-66
2021/10/05 11:28:31;;;;;;;8.73;4.25;;;;;;;15.09;41.38;101979.98;1635067;86;21044;-69
2021/10/05 11:31:04;;;;;;;22.80;8.30;;;;;;;15.15;41.28;101965.32;1639747;86;21189;-65
2021/10/05 11:33:36;;;;;;;11.05;6.65;;;;;;;15.23;41.70;101987.25;1656539;84;21040;-67
2021/10/05 11:36:21;;;;;;;5.67;5.03;;;;;;;15.32;43.23;101971.41;1679519;84;21138;-69